• Join FlightAware (Why Join?)
  • Login
  • US Flag 
06:20PM EDT


 

Airport Tracker/Info


-or-


 

Live Flight TrackerFlight Track Log ✈ SWA771 ✈ 11-May-2013 ✈ KDEN - KPHX

Flight Track Log - Related Links

Times and Time Zones

All times are in EDT time to prevent confusion due to time zone crossing. See the SWA771 flight status page for this flight to view local times or setup timezone preferences in your user account.

Time Position Orientation Groundspeed Altitude Reporting Facility
EDT Latitude Longitude Course Direction KTS MPH feet Rate Location/Type
09:34PM 39.8167 -104.6667 186° South 161 185 6,700  Level Denver TRACON
09:35PM 39.7781 -104.6722 186° South 188 216 7,700 2,100 Climbing Denver Center
09:36PM 39.7106 -104.6947 194° South 228 262 10,500 2,220 Climbing Denver Center
09:37PM 39.6372 -104.6986 182° South 264 304 12,300 1,980 Climbing Denver Center
09:38PM 39.5408 -104.7064 184° South 345 397 14,600 2,580 Climbing Denver Center
09:39PM 39.4344 -104.7150 184° South 381 438 17,700 3,000 Climbing Denver Center
09:40PM 39.3256 -104.7706 202° Southwest 388 447 20,700 2,640 Climbing Denver Center
09:41PM 39.2528 -104.8719 227° Southwest 382 440 23,200 2,280 Climbing Denver Center
09:42PM 39.1844 -104.9894 233° Southwest 408 470 25,400 1,860 Climbing Denver Center
09:43PM 39.0986 -105.0922 223° Southwest 437 503 27,000 1,680 Climbing Denver Center
09:44PM 38.9706 -105.1719 206° Southwest 456 525 28,900 1,620 Climbing Denver Center
09:45PM 38.8592 -105.2425 206° Southwest 463 533 30,400 1,860 Climbing Denver Center
09:46PM 38.7236 -105.3278 206° Southwest 478 550 32,700 1,740 Climbing Denver Center
09:47PM 38.6092 -105.4014 207° Southwest 481 554 34,000 600 Climbing Denver Center
09:48PM 38.5014 -105.4831 211° Southwest 474 545 34,000  Level Denver Center
09:49PM 38.3964 -105.6075 223° Southwest 465 535 34,000 720 Level Denver Center
09:50PM 38.3042 -105.7158 223° Southwest 465 535 35,500 1,620 Climbing Denver Center
09:51PM 38.1989 -105.8392 223° Southwest 464 534 37,400 1,200 Climbing Denver Center
09:52PM 38.1089 -105.9442 223° Southwest 461 531 38,000 240 Climbing Denver Center
09:53PM 38.0200 -106.0483 223° Southwest 457 526 38,000  Level Denver Center
09:54PM 37.9153 -106.1694 222° Southwest 457 526 38,000  Level Denver Center
09:55PM 37.8264 -106.2725 222° Southwest 455 524 38,000  Level Denver Center
09:56PM 37.7228 -106.3897 222° Southwest 459 528 38,000  Level Denver Center
09:57PM 37.6336 -106.4942 223° Southwest 457 526 38,000  Level Denver Center
09:58PM 37.5283 -106.6156 222° Southwest 459 528 38,000  Level Denver Center
09:59PM 37.4378 -106.7192 222° Southwest 460 529 38,000  Level Denver Center
10:00PM 37.3461 -106.8203 221° Southwest 459 528 38,000  Level Denver Center
10:01PM 37.2414 -106.9406 222° Southwest 458 527 38,000  Level Denver Center
10:02PM 37.1514 -107.0428 222° Southwest 457 526 38,000  Level Denver Center
10:03PM 37.0608 -107.1444 222° Southwest 456 525 38,000  Level Denver Center
10:04PM 36.9550 -107.2642 222° Southwest 458 527 38,000  Level Denver Center
10:05PM 36.8628 -107.3642 221° Southwest 459 528 38,000  Level Denver Center
10:06PM 36.7575 -107.4828 222° Southwest 455 524 38,000  Level Denver Center
10:07PM 36.6650 -107.5839 221° Southwest 459 528 38,000  Level Denver Center
10:08PM 36.5739 -107.6858 222° Southwest 461 531 38,000  Level Denver Center
10:09PM 36.4656 -107.8053 222° Southwest 465 535 38,000  Level Denver Center
10:10PM 36.3725 -107.9067 221° Southwest 465 535 38,000  Level Denver Center
10:11PM 36.2797 -108.0086 222° Southwest 464 534 38,000  Level Denver Center
10:12PM 36.1706 -108.1267 221° Southwest 464 534 38,000  Level Denver Center
10:13PM 36.1239 -108.1792 222° Southwest 466 536 38,000  Level Albuquerque Center
10:14PM 36.0300 -108.2806 221° Southwest 466 536 38,000  Level Albuquerque Center
10:15PM 35.9194 -108.3997 221° Southwest 468 539 38,000  Level Albuquerque Center
10:16PM 35.8239 -108.5019 221° Southwest 470 541 38,000  Level Albuquerque Center
10:17PM 35.7281 -108.6056 221° Southwest 473 544 38,000  Level Albuquerque Center
10:18PM 35.6153 -108.7264 221° Southwest 477 549 38,000  Level Albuquerque Center
10:19PM 35.5189 -108.8283 221° Southwest 477 549 38,000 -480 Level Albuquerque Center
10:20PM 35.4258 -108.9364 223° Southwest 477 549 37,100 -1,020 Descending Albuquerque Center
10:21PM 35.3258 -109.0700 227° Southwest 474 545 36,000 -1,080 Descending Albuquerque Center
10:22PM 35.2375 -109.1858 227° Southwest 481 554 35,000 -960 Descending Albuquerque Center
10:23PM 35.1497 -109.2978 226° Southwest 478 550 34,100 -540 Descending Albuquerque Center
10:24PM 35.0478 -109.4286 226° Southwest 475 547 34,000 -60 Descending Albuquerque Center
10:25PM 34.9583 -109.5364 225° Southwest 472 543 34,000  Level Albuquerque Center
10:26PM 34.8692 -109.6497 226° Southwest 479 551 34,000  Level Albuquerque Center
10:27PM 34.7658 -109.7828 227° Southwest 483 556 34,000  Level Albuquerque Center
10:28PM 34.6889 -109.9081 233° Southwest 484 557 34,000  Level Albuquerque Center
10:29PM 34.6375 -110.0508 246° West 483 556 34,000  Level Albuquerque Center
10:30PM 34.5789 -110.2222 247° West 489 563 34,000 -60 Level Albuquerque Center
10:31PM 34.5200 -110.3567 242° Southwest 475 547 33,900 -1,140 Descending Albuquerque Center
10:32PM 34.4678 -110.5147 248° West 486 559 31,800 -2,220 Descending Albuquerque Center
10:33PM 34.4128 -110.6556 245° Southwest 470 541 29,500 -2,220 Descending Albuquerque Center
10:34PM 34.3553 -110.7894 243° Southwest 455 524 27,300 -2,220 Descending Albuquerque Center
10:35PM 34.2739 -110.9011 229° Southwest 441 507 25,100 -2,220 Descending Albuquerque Center
10:36PM 34.1933 -111.0053 227° Southwest 429 494 22,900 -2,040 Descending Albuquerque Center
10:37PM 34.1175 -111.1028 227° Southwest 408 470 21,000 -1,920 Descending Albuquerque Center
10:38PM 34.0442 -111.1958 226° Southwest 389 448 19,000 -1,920 Descending Albuquerque Center
10:39PM 33.9739 -111.2864 227° Southwest 375 432 17,100 -1,800 Descending Albuquerque Center
10:40PM 33.9044 -111.3758 227° Southwest 366 421 15,400 -1,440 Descending Albuquerque Center
10:41PM 33.8478 -111.4683 234° Southwest 344 396 14,200 -1,440 Descending Albuquerque Center
10:42PM 33.7986 -111.5633 238° Southwest 335 386 12,500 -1,680 Descending Albuquerque Center
10:43PM 33.7494 -111.6564 238° Southwest 329 379 10,800 -1,260 Descending Albuquerque Center
10:44PM 33.7017 -111.7461 237° Southwest 320 368 10,000 -600 Descending Albuquerque Center
10:45PM 33.6544 -111.8314 236° Southwest 310 357 9,600 -540 Descending Albuquerque Center
10:46PM 33.6122 -111.9094 237° Southwest 287 330 9,000 -600 Descending Albuquerque Center
10:47PM 33.5744 -111.9814 238° Southwest 262 302 8,400 -900 Descending Albuquerque Center
10:48PM 33.5356 -112.0539 237° Southwest 257 296 7,200 -1,080 Descending Albuquerque Center
10:49PM 33.5269 -112.1350 263° West 253 291 6,300 -960 Descending Albuquerque Center
10:50PM 33.4869 -112.1806 224° Southwest 234 269 5,300 -840 Descending Albuquerque Center
10:51PM 33.4322 -112.1500 155° Southeast 224 258 4,600 -1,380 Descending Albuquerque Center
10:52PM 33.4325 -112.0900 90° East 174 200 2,500 -1,620 Descending Albuquerque Center
10:53PM 33.4328 -112.0417 90° East 158 182 1,400 -780 Descending Albuquerque Center
10:54PM 33.4322 -111.9972 91° East 153 176 1,000 -420 Descending Albuquerque Center